Time;durP1;ratioP1;P1;durP2;ratioP2;P2;SDS_P1;SDS_P2;PMS_P1;PMS_P2;Temp;Humidity;BMP_temperature;BMP_pressure;BME280_temperature;BME280_humidity;BME280_pressure;Samples;Min_cycle;Max_cycle;Signal;HPM_P1;HPM_P2
2022/01/25 00:33:28;;;;;;;33.47;13.63;;;;;;;-8.41;65.74;96595.66;5014626;28;20064;-81
2022/01/25 00:35:54;;;;;;;33.87;14.50;;;;;;;-8.81;65.75;96520.84;5014595;28;20046;-82
2022/01/25 00:38:20;;;;;;;33.00;13.50;;;;;;;-8.65;65.93;96555.50;5029719;28;20038;-82
2022/01/25 00:40:46;;;;;;;29.13;12.20;;;;;;;-8.82;65.48;96561.16;5014797;28;20060;-81
2022/01/25 00:43:11;;;;;;;32.83;13.87;;;;;;;-9.41;66.29;96474.16;5012955;28;20062;-82
2022/01/25 00:45:37;;;;;;;37.20;13.97;;;;;;;-8.80;66.67;96566.19;5013902;28;20476;-82
2022/01/25 00:48:06;;;;;;;39.60;14.93;;;;;;;-8.71;66.42;96592.00;5012946;28;20037;-82
2022/01/25 00:50:38;;;;;;;34.27;13.47;;;;;;;-8.60;66.99;96584.25;5013722;28;20045;-81
2022/01/25 00:55:32;;;;;;;41.63;16.13;;;;;;;-8.43;65.98;96590.63;5014137;28;20428;-82
2022/01/25 00:57:59;;;;;;;36.90;15.77;;;;;;;-8.45;65.91;96558.22;5014523;28;20060;-82
2022/01/25 01:00:26;;;;;;;44.73;16.67;;;;;;;-8.48;65.31;96581.66;5014437;28;20037;-83
2022/01/25 01:02:52;;;;;;;39.00;16.33;;;;;;;-8.76;66.27;96547.81;5012908;28;20033;-79
2022/01/25 01:05:18;;;;;;;38.00;15.37;;;;;;;-8.80;66.59;96559.31;5013765;28;20127;-80
2022/01/25 01:07:43;;;;;;;31.20;13.60;;;;;;;-9.08;67.20;96536.72;5012285;28;20029;-80
2022/01/25 01:10:14;;;;;;;36.73;14.83;;;;;;;-8.84;67.54;96583.59;5013939;28;20481;-80
2022/01/25 01:15:35;;;;;;;35.67;14.00;;;;;;;-8.68;66.47;96581.47;5013559;28;20054;-80
2022/01/25 01:29:25;;;;;;;31.90;13.30;;;;;;;-9.44;67.64;96466.69;5013390;28;20376;-80
2022/01/25 01:32:02;;;;;;;27.73;12.77;;;;;;;-8.90;67.86;96542.13;5013580;28;20038;-80
2022/01/25 01:44:55;;;;;;;33.87;13.10;;;;;;;-9.63;67.27;96442.56;5013233;28;20075;-80
2022/01/25 01:47:26;;;;;;;26.08;11.05;;;;;;;-8.80;67.90;96561.06;5013047;28;20034;-80
2022/01/25 01:49:52;;;;;;;24.97;11.20;;;;;;;-9.13;67.53;96520.81;5011524;28;20090;-80
2022/01/25 01:52:18;;;;;;;25.07;11.27;;;;;;;-9.32;67.86;96500.06;5011613;28;20488;-80
2022/01/25 01:54:43;;;;;;;32.23;12.13;;;;;;;-8.96;68.50;96569.16;5011430;28;20496;-80
2022/01/25 01:57:09;;;;;;;31.50;12.20;;;;;;;-9.42;68.72;96495.63;5011786;28;20044;-80
2022/01/25 01:59:34;;;;;;;32.73;12.30;;;;;;;-9.99;69.02;96425.69;5013297;28;20117;-80
2022/01/25 02:02:01;;;;;;;27.20;11.47;;;;;;;-9.16;69.08;96549.34;5011643;28;20037;-80
2022/01/25 02:04:38;;;;;;;30.10;13.65;;;;;;;-9.78;69.47;96470.22;3929002;28;10001927;-80
2022/01/25 02:07:04;;;;;;;45.27;18.30;;;;;;;-9.28;69.32;96545.94;1726636;28;10002013;-80
2022/01/25 02:09:44;;;;;;;49.15;18.15;;;;;;;-9.70;69.55;96479.91;4030299;28;10001906;-79
2022/01/25 02:12:09;;;;;;;59.47;21.33;;;;;;;-9.30;68.98;96513.59;1727282;28;10001928;-80
2022/01/25 02:14:36;;;;;;;57.20;22.57;;;;;;;-9.05;68.11;96528.72;5011457;28;20295;-79
2022/01/25 02:23:21;;;;;;;55.73;22.10;;;;;;;-9.00;67.18;96540.28;4952034;29;20047;-80
2022/01/25 02:25:50;;;;;;;56.07;20.53;;;;;;;-9.29;67.28;96520.38;4952387;29;20042;-80
2022/01/25 02:28:16;;;;;;;58.40;21.13;;;;;;;-9.31;67.98;96514.56;4982548;28;20057;-80
2022/01/25 02:30:43;;;;;;;53.43;20.67;;;;;;;-10.08;67.91;96406.66;5012590;28;20052;-80
2022/01/25 02:33:09;;;;;;;48.20;17.37;;;;;;;-9.19;67.69;96526.44;5011450;28;20580;-79
2022/01/25 02:35:35;;;;;;;39.60;15.60;;;;;;;-9.90;68.86;96450.63;5012352;28;20054;-80
2022/01/25 02:38:00;;;;;;;46.83;17.57;;;;;;;-9.82;69.89;96486.78;5011172;28;20405;-80
2022/01/25 02:40:26;;;;;;;43.70;17.63;;;;;;;-9.52;69.58;96533.22;5012771;28;20026;-80
2022/01/25 02:42:52;;;;;;;39.33;16.10;;;;;;;-9.63;69.41;96517.03;5012222;28;20093;-80
2022/01/25 02:45:18;;;;;;;43.70;17.77;;;;;;;-9.44;69.17;96530.91;5012121;28;20077;-80
2022/01/25 02:50:28;;;;;;;41.43;16.77;;;;;;;-9.36;70.07;96518.28;5013046;28;20052;-80
2022/01/25 02:52:55;;;;;;;44.27;16.53;;;;;;;-10.08;69.41;96386.13;5028855;28;20072;-80
2022/01/25 02:55:22;;;;;;;44.90;16.80;;;;;;;-10.17;69.69;96421.00;5012880;28;20029;-80
2022/01/25 02:57:48;;;;;;;41.53;15.87;;;;;;;-9.56;69.99;96497.63;5011912;28;20045;-80
2022/01/25 03:00:15;;;;;;;41.17;16.53;;;;;;;-9.76;69.54;96488.88;5011926;28;20038;-80
2022/01/25 03:02:40;;;;;;;43.20;15.60;;;;;;;-9.89;69.65;96453.06;5012106;28;20041;-81
2022/01/25 03:05:06;;;;;;;39.53;15.67;;;;;;;-10.38;69.09;96358.56;5013356;28;20038;-80
2022/01/25 03:07:33;;;;;;;35.50;16.23;;;;;;;-9.93;68.92;96445.75;5011497;28;20038;-80
2022/01/25 03:09:59;;;;;;;39.70;16.33;;;;;;;-10.46;69.76;96401.09;5012939;28;20030;-80
2022/01/25 03:12:42;;;;;;;45.10;15.70;;;;;;;-10.51;69.43;96393.72;5013259;28;20072;-80
2022/01/25 03:15:25;;;;;;;39.90;17.00;;;;;;;-10.34;69.48;96442.00;5012149;28;20037;-80
2022/01/25 03:18:00;;;;;;;49.53;18.77;;;;;;;-10.21;71.04;96488.88;5011410;28;20476;-80
2022/01/25 03:20:48;;;;;;;54.40;21.80;;;;;;;-11.05;69.51;96337.94;5010887;28;20038;-80
2022/01/25 03:23:19;;;;;;;55.80;20.87;;;;;;;-10.59;70.45;96425.06;5011524;28;20045;-80
2022/01/25 03:25:47;;;;;;;55.45;21.77;;;;;;;-10.55;69.30;96449.56;5011349;28;20044;-81
2022/01/25 03:28:14;;;;;;;65.60;23.53;;;;;;;-10.20;69.04;96487.13;5011960;28;20056;-80
2022/01/25 03:30:40;;;;;;;63.80;25.27;;;;;;;-10.74;68.36;96402.31;5013058;28;20033;-80
2022/01/25 03:33:05;;;;;;;67.10;23.83;;;;;;;-10.94;68.48;96403.78;5010979;28;20038;-80
2022/01/25 03:35:31;;;;;;;66.07;24.00;;;;;;;-10.89;67.78;96386.31;5011263;28;20067;-80
2022/01/25 03:37:56;;;;;;;64.57;21.17;;;;;;;-10.64;68.80;96431.47;5011456;28;20038;-81
2022/01/25 03:40:22;;;;;;;62.10;20.53;;;;;;;-11.42;68.54;96305.72;5011542;28;20030;-80
2022/01/25 03:42:48;;;;;;;51.17;20.17;;;;;;;-10.75;68.14;96409.16;5011284;28;20560;-80
2022/01/25 03:45:19;;;;;;;47.73;19.00;;;;;;;-10.62;67.76;96398.84;5011163;28;20129;-80
2022/01/25 03:47:59;;;;;;;46.63;18.40;;;;;;;-10.72;67.46;96370.50;5011968;28;20041;-80
2022/01/25 03:50:26;;;;;;;54.47;19.93;;;;;;;-10.26;69.41;96485.84;5010839;28;20034;-80
2022/01/25 03:52:51;;;;;;;57.70;19.93;;;;;;;-10.93;67.87;96364.41;4995783;28;20041;-80
2022/01/25 03:55:17;;;;;;;45.40;17.87;;;;;;;-10.17;68.44;96462.06;5017639;28;20045;-80
2022/01/25 03:57:43;;;;;;;44.33;18.20;;;;;;;-11.44;67.61;96256.41;5028449;28;20513;-80
2022/01/25 04:00:10;;;;;;;56.93;21.17;;;;;;;-10.56;68.28;96429.97;5013257;28;20484;-80
2022/01/25 04:02:37;;;;;;;49.00;19.50;;;;;;;-10.17;67.97;96474.88;5015624;28;20042;-79
2022/01/25 04:05:05;;;;;;;58.70;18.80;;;;;;;-10.67;67.65;96396.59;5015351;28;20370;-80
2022/01/25 04:07:44;;;;;;;48.07;19.50;;;;;;;-10.13;68.08;96466.00;5016373;28;20041;-80
2022/01/25 04:10:22;;;;;;;46.00;19.00;;;;;;;-10.64;68.28;96377.63;2384504;28;10022854;-80
2022/01/25 04:12:47;;;;;;;50.67;21.23;;;;;;;-10.83;68.80;96392.75;3285502;28;10001277;-80
2022/01/25 04:15:13;;;;;;;55.17;20.93;;;;;;;-10.60;70.62;96438.81;5031986;28;20109;-80
2022/01/25 04:17:41;;;;;;;47.67;19.47;;;;;;;-11.37;71.61;96342.06;5014783;28;20025;-80
2022/01/25 04:20:21;;;;;;;46.30;19.60;;;;;;;-10.59;72.22;96467.81;5014819;28;20034;-80
2022/01/25 04:25:31;;;;;;;49.80;19.07;;;;;;;-11.26;73.32;96343.81;5016435;28;20049;-80
2022/01/25 04:27:56;;;;;;;45.97;18.53;;;;;;;-10.90;72.69;96402.63;5014592;28;20421;-80
2022/01/25 04:30:22;;;;;;;47.83;17.73;;;;;;;-11.19;73.25;96345.00;5016265;28;20081;-80
2022/01/25 04:32:53;;;;;;;45.43;18.07;;;;;;;-10.33;73.21;96478.72;5016335;28;20410;-79
2022/01/25 04:54:34;;;;;;;48.27;19.67;;;;;;;-11.50;74.33;96316.50;5015854;28;20119;-80
2022/01/25 04:57:01;;;;;;;43.50;17.30;;;;;;;-10.73;74.14;96473.16;5015179;28;20401;-79
2022/01/25 04:59:33;;;;;;;43.77;17.27;;;;;;;-11.71;74.63;96300.97;5013899;28;20026;-79
2022/01/25 05:02:08;;;;;;;45.00;18.63;;;;;;;-11.00;74.52;96415.31;5015624;28;20022;-79
2022/01/25 05:04:39;;;;;;;41.67;17.97;;;;;;;-11.33;74.37;96375.00;5029907;28;20069;-80
2022/01/25 05:09:47;;;;;;;45.60;19.02;;;;;;;-10.72;74.25;96478.16;5015080;28;20111;-79
2022/01/25 05:12:13;;;;;;;47.07;18.30;;;;;;;-10.72;73.68;96467.09;5029591;28;20120;-79
2022/01/25 05:14:56;;;;;;;49.07;19.47;;;;;;;-11.29;74.69;96405.53;5014811;28;20026;-79
2022/01/25 05:17:30;;;;;;;50.80;19.87;;;;;;;-11.40;75.36;96375.56;5016578;28;20034;-79
2022/01/25 05:22:27;;;;;;;59.00;21.10;;;;;;;-11.70;74.90;96319.72;5018374;28;20033;-80
2022/01/25 05:24:55;;;;;;;55.73;20.57;;;;;;;-10.67;74.88;96470.13;5019107;28;20038;-79
2022/01/25 05:27:26;;;;;;;44.33;19.30;;;;;;;-11.61;75.67;96318.22;5016403;28;20061;-79
2022/01/25 05:29:52;;;;;;;39.60;16.60;;;;;;;-11.34;74.79;96357.19;5015258;28;20425;-79
2022/01/25 05:32:18;;;;;;;51.07;19.20;;;;;;;-11.86;75.05;96276.53;5016210;28;20030;-80
2022/01/25 05:34:43;;;;;;;52.43;19.47;;;;;;;-11.06;74.81;96407.25;5032357;28;20407;-80
2022/01/25 05:37:09;;;;;;;51.47;20.27;;;;;;;-11.61;75.14;96331.84;5014693;28;20083;-79
2022/01/25 05:39:37;;;;;;;51.27;19.77;;;;;;;-10.68;74.79;96458.25;5014706;28;20033;-80
2022/01/25 05:47:19;;;;;;;43.90;19.23;;;;;;;-10.80;75.02;96451.44;5016404;28;20477;-80
2022/01/25 05:49:45;;;;;;;52.90;21.23;;;;;;;-11.12;75.69;96380.31;5014535;28;20030;-80
2022/01/25 05:52:11;;;;;;;50.63;19.63;;;;;;;-11.34;74.45;96349.50;5014790;28;20077;-80
2022/01/25 05:54:38;;;;;;;48.60;19.57;;;;;;;-11.18;74.50;96355.16;5014834;28;20056;-80
2022/01/25 05:57:04;;;;;;;50.77;18.73;;;;;;;-11.37;73.92;96340.31;5014199;28;20454;-80
2022/01/25 05:59:30;;;;;;;53.83;21.30;;;;;;;-11.27;73.77;96335.31;5015197;28;20898;-79
2022/01/25 06:01:55;;;;;;;41.80;17.00;;;;;;;-11.32;74.14;96357.91;5012930;28;20030;-80
2022/01/25 06:04:22;;;;;;;49.67;20.20;;;;;;;-10.63;74.37;96446.72;5013994;28;20026;-80
2022/01/25 06:06:48;;;;;;;50.73;20.53;;;;;;;-10.60;73.71;96455.94;5014851;28;20029;-80
2022/01/25 06:09:14;;;;;;;50.63;19.67;;;;;;;-10.59;74.00;96453.25;5019289;28;20095;-81
2022/01/25 06:11:39;;;;;;;53.23;20.90;;;;;;;-10.80;73.92;96411.28;5014508;28;20026;-80
2022/01/25 06:14:05;;;;;;;49.77;19.57;;;;;;;-11.19;73.47;96375.75;5015722;28;20081;-81
2022/01/25 06:16:31;;;;;;;55.70;23.27;;;;;;;-11.46;73.39;96317.94;5014851;28;20061;-81
2022/01/25 06:18:58;;;;;;;53.47;20.20;;;;;;;-10.46;74.84;96460.88;5014619;28;20069;-80
2022/01/25 06:21:24;;;;;;;60.97;21.77;;;;;;;-10.45;74.06;96467.63;5030025;28;20448;-80
2022/01/25 06:23:50;;;;;;;57.73;21.60;;;;;;;-10.38;74.54;96462.88;5013143;28;20041;-81
2022/01/25 06:26:17;;;;;;;57.70;20.50;;;;;;;-10.84;74.07;96386.00;5014588;28;20034;-81
2022/01/25 06:28:42;;;;;;;56.37;20.53;;;;;;;-10.95;73.50;96354.28;5029961;28;20461;-81
2022/01/25 06:31:08;;;;;;;55.63;22.00;;;;;;;-10.76;72.97;96392.19;5013803;28;20320;-80
2022/01/25 06:33:35;;;;;;;56.93;20.10;;;;;;;-10.78;73.05;96382.97;5015752;28;20026;-80
2022/01/25 06:36:01;;;;;;;57.80;22.07;;;;;;;-10.28;72.74;96449.22;5013713;28;20049;-80
2022/01/25 06:38:27;;;;;;;55.40;21.60;;;;;;;-10.42;72.21;96435.81;5013810;28;20579;-81
2022/01/25 06:40:53;;;;;;;54.27;22.80;;;;;;;-10.75;72.93;96398.91;5031923;28;20032;-81
2022/01/25 06:43:19;;;;;;;50.80;21.40;;;;;;;-10.23;72.71;96462.56;5014466;28;20419;-81
2022/01/25 06:45:55;;;;;;;55.53;21.27;;;;;;;-10.81;72.55;96360.94;5014501;28;20034;-80
2022/01/25 06:48:21;;;;;;;58.37;21.13;;;;;;;-10.56;71.52;96416.34;5015869;28;20022;-81
2022/01/25 06:50:47;;;;;;;51.33;20.37;;;;;;;-10.45;72.39;96402.72;5030652;28;20042;-82
2022/01/25 06:53:12;;;;;;;53.47;19.67;;;;;;;-10.08;71.88;96441.78;5030657;28;20033;-81
2022/01/25 06:55:39;;;;;;;53.00;19.47;;;;;;;-10.58;71.55;96379.72;5015946;28;20036;-80
2022/01/25 06:58:04;;;;;;;55.57;21.30;;;;;;;-10.29;72.37;96380.09;5014677;28;20084;-81
2022/01/25 07:00:30;;;;;;;51.70;21.57;;;;;;;-9.79;71.81;96432.66;5014955;28;20018;-80
2022/01/25 07:02:56;;;;;;;53.13;20.50;;;;;;;-10.58;71.66;96328.47;5013393;28;20099;-80
2022/01/25 07:05:21;;;;;;;47.87;20.27;;;;;;;-10.30;71.57;96363.91;5013615;28;20026;-80
2022/01/25 07:07:47;;;;;;;49.77;18.70;;;;;;;-9.69;70.74;96443.84;5013167;28;20030;-81
2022/01/25 07:10:14;;;;;;;51.77;20.47;;;;;;;-10.93;71.54;96247.38;5013950;28;20431;-81
2022/01/25 07:12:39;;;;;;;47.57;19.87;;;;;;;-10.05;70.45;96378.19;5013324;28;20025;-80
2022/01/25 07:15:06;;;;;;;51.20;19.27;;;;;;;-9.96;70.54;96387.75;5014197;28;20548;-81
2022/01/25 07:17:32;;;;;;;54.53;20.13;;;;;;;-10.37;70.14;96302.94;5013192;28;20026;-80
2022/01/25 07:19:57;;;;;;;55.20;20.80;;;;;;;-10.48;70.24;96293.50;5013005;28;20035;-80
2022/01/25 07:22:23;;;;;;;53.87;21.07;;;;;;;-10.19;70.04;96379.28;5030101;28;20025;-80
2022/01/25 07:24:48;;;;;;;42.87;18.03;;;;;;;-9.64;69.63;96440.91;5014399;28;20436;-80
2022/01/25 07:27:14;;;;;;;50.40;18.33;;;;;;;-10.23;70.95;96341.16;5014302;28;20425;-80
2022/01/25 07:29:39;;;;;;;51.77;21.93;;;;;;;-10.46;70.01;96293.38;5012360;28;20042;-81
2022/01/25 07:32:05;;;;;;;51.70;20.30;;;;;;;-10.05;70.23;96365.34;5029255;28;20041;-80
2022/01/25 07:34:32;;;;;;;49.00;19.85;;;;;;;-9.90;70.36;96386.44;3597325;28;10020825;-80
2022/01/25 07:36:58;;;;;;;61.07;20.33;;;;;;;-9.71;70.02;96398.69;1720486;28;10002046;-81
2022/01/25 07:39:26;;;;;;;52.77;19.37;;;;;;;-9.55;70.08;96429.94;4992915;28;20309;-80
2022/01/25 07:41:56;;;;;;;42.23;18.30;;;;;;;-10.43;70.17;96322.16;4993106;28;20096;-81
2022/01/25 07:44:26;;;;;;;60.97;20.35;;;;;;;-10.33;69.48;96317.16;4994453;28;20057;-80
2022/01/25 07:46:52;;;;;;;56.10;22.33;;;;;;;-10.16;69.68;96319.22;4993306;28;20053;-80
2022/01/25 07:49:18;;;;;;;54.70;22.37;;;;;;;-10.31;69.96;96297.34;4993244;28;20944;-80
2022/01/25 07:51:44;;;;;;;65.63;23.27;;;;;;;-9.39;69.76;96435.50;4993765;28;20069;-80
2022/01/25 07:54:10;;;;;;;52.23;22.20;;;;;;;-9.36;70.07;96423.22;4993434;28;20038;-81
2022/01/25 07:56:36;;;;;;;61.17;23.50;;;;;;;-10.01;68.93;96296.66;4993352;28;20046;-81
2022/01/25 07:59:02;;;;;;;60.17;22.07;;;;;;;-9.40;69.57;96387.66;4994430;28;20030;-81
2022/01/25 08:01:28;;;;;;;54.40;22.93;;;;;;;-9.28;69.68;96376.38;4993958;28;20049;-81
2022/01/25 08:03:53;;;;;;;51.83;21.03;;;;;;;-9.44;68.61;96361.38;4994369;28;20044;-80
2022/01/25 08:06:20;;;;;;;59.63;22.57;;;;;;;-8.92;68.55;96407.78;4995530;28;20030;-81
2022/01/25 08:08:46;;;;;;;51.40;21.43;;;;;;;-9.37;68.25;96344.53;4993917;28;20038;-80
2022/01/25 08:11:12;;;;;;;54.03;21.17;;;;;;;-9.40;68.26;96360.19;4994889;28;20560;-81
2022/01/25 08:13:44;;;;;;;49.80;23.17;;;;;;;-8.97;69.42;96424.38;4993200;28;20057;-81
2022/01/25 08:16:10;;;;;;;58.63;21.33;;;;;;;-9.01;69.34;96383.63;4994477;28;20399;-81
2022/01/25 08:18:35;;;;;;;52.23;21.00;;;;;;;-9.58;68.82;96278.66;4995168;28;20046;-81
2022/01/25 08:21:00;;;;;;;51.17;20.70;;;;;;;-9.12;68.08;96376.78;4994162;28;20026;-81
2022/01/25 08:23:26;;;;;;;50.60;20.30;;;;;;;-9.06;68.34;96388.31;4995881;28;20039;-80
2022/01/25 08:25:52;;;;;;;52.33;21.30;;;;;;;-8.74;68.95;96409.66;4993630;28;20037;-81
2022/01/25 08:28:17;;;;;;;53.17;20.57;;;;;;;-8.63;68.46;96388.22;4995140;28;20045;-81
2022/01/25 08:30:43;;;;;;;53.43;20.07;;;;;;;-9.07;68.42;96337.84;4995388;28;20497;-81
2022/01/25 08:33:11;;;;;;;58.03;21.07;;;;;;;-9.67;68.36;96272.50;4993904;28;20035;-81
2022/01/25 08:35:37;;;;;;;52.77;19.97;;;;;;;-8.90;68.08;96380.19;4993453;28;20090;-81
2022/01/25 08:38:02;;;;;;;58.07;21.97;;;;;;;-8.87;68.73;96355.06;4994903;28;20042;-81
2022/01/25 08:40:30;;;;;;;49.20;19.70;;;;;;;-8.53;68.30;96409.66;4994188;28;20146;-81
2022/01/25 08:42:56;;;;;;;56.87;21.97;;;;;;;-8.55;68.82;96405.59;4992522;28;20038;-80
2022/01/25 08:45:22;;;;;;;44.90;19.80;;;;;;;-8.97;68.31;96349.03;4993535;28;20428;-81
2022/01/25 08:47:48;;;;;;;54.67;19.80;;;;;;;-9.40;68.23;96280.56;4994145;28;20042;-81
2022/01/25 08:50:13;;;;;;;54.33;20.93;;;;;;;-9.15;67.63;96333.34;4998756;28;20038;-80
2022/01/25 08:52:39;;;;;;;41.03;18.53;;;;;;;-9.08;67.95;96343.97;4997827;28;20066;-81
2022/01/25 08:55:06;;;;;;;48.77;18.60;;;;;;;-9.33;68.17;96303.19;4996980;28;20038;-80
2022/01/25 08:57:32;;;;;;;64.27;20.93;;;;;;;-8.50;69.08;96408.59;4997571;28;20022;-81
2022/01/25 08:59:57;;;;;;;48.93;19.67;;;;;;;-8.72;68.28;96374.38;4997555;28;20465;-81
2022/01/25 09:02:23;;;;;;;53.07;19.03;;;;;;;-9.15;68.30;96291.41;4996148;28;20097;-81
2022/01/25 09:04:49;;;;;;;47.90;20.03;;;;;;;-10.38;68.09;96094.41;4996313;28;20042;-80
2022/01/25 09:07:14;;;;;;;49.23;20.50;;;;;;;-8.46;67.87;96389.38;4995054;28;20064;-82
2022/01/25 09:09:41;;;;;;;50.30;19.57;;;;;;;-9.29;68.29;96236.00;4995942;28;20038;-81
2022/01/25 09:12:07;;;;;;;53.03;20.77;;;;;;;-8.26;68.06;96384.19;4996111;28;20034;-80
2022/01/25 09:14:33;;;;;;;46.00;19.43;;;;;;;-8.38;67.27;96369.78;4996058;28;20042;-80
2022/01/25 09:16:59;;;;;;;51.33;19.77;;;;;;;-8.73;66.76;96285.31;4996794;28;20088;-81
2022/01/25 09:19:24;;;;;;;45.30;17.47;;;;;;;-8.43;66.33;96345.41;4995199;28;20045;-80
2022/01/25 09:21:50;;;;;;;46.70;18.10;;;;;;;-9.08;66.49;96279.72;4995051;28;20042;-79
2022/01/25 09:24:15;;;;;;;42.70;16.47;;;;;;;-9.56;66.85;96225.44;4995302;28;20136;-81
2022/01/25 09:26:41;;;;;;;46.33;19.13;;;;;;;-8.95;66.84;96306.03;4995918;28;20038;-80
2022/01/25 09:29:06;;;;;;;47.80;19.80;;;;;;;-8.32;68.10;96371.06;4994139;28;20093;-80
2022/01/25 09:31:32;;;;;;;45.20;18.30;;;;;;;-8.44;67.49;96324.00;4996289;28;20054;-80
2022/01/25 09:33:58;;;;;;;38.20;16.63;;;;;;;-8.75;66.63;96305.19;4993286;28;20486;-80
2022/01/25 09:36:24;;;;;;;40.10;17.50;;;;;;;-8.17;67.14;96372.31;4995329;28;20062;-81
2022/01/25 09:38:54;;;;;;;60.00;20.10;;;;;;;-9.07;66.82;96253.84;4995039;28;20053;-81
2022/01/25 09:41:20;;;;;;;47.70;18.70;;;;;;;-8.26;67.31;96367.94;4994027;28;20080;-80
2022/01/25 09:43:46;;;;;;;65.07;21.20;;;;;;;-8.93;68.01;96250.16;4993802;28;20649;-82
2022/01/25 09:46:12;;;;;;;55.67;20.50;;;;;;;-8.62;67.43;96295.50;4994259;28;20068;-82
2022/01/25 09:48:38;;;;;;;41.83;17.37;;;;;;;-8.53;66.35;96304.19;4995007;28;20038;-80
2022/01/25 09:51:07;;;;;;;46.67;17.53;;;;;;;-7.98;66.59;96390.41;4993497;28;20046;-81
2022/01/25 09:53:36;;;;;;;44.00;18.13;;;;;;;-8.16;65.90;96335.31;4994188;28;20482;-81
2022/01/25 09:56:02;;;;;;;47.30;17.37;;;;;;;-8.55;66.89;96264.94;4993883;28;20375;-79
2022/01/25 09:58:27;;;;;;;50.70;17.30;;;;;;;-8.50;66.02;96272.25;4992343;28;20077;-82
2022/01/25 10:00:57;;;;;;;49.03;20.03;;;;;;;-8.79;67.20;96207.88;4992751;28;20037;-80
2022/01/25 10:03:32;;;;;;;45.80;18.70;;;;;;;-8.62;66.38;96235.56;4993145;28;20501;-81
2022/01/25 10:06:01;;;;;;;41.80;17.93;;;;;;;-7.92;66.33;96366.69;4993990;28;20034;-80
2022/01/25 10:08:30;;;;;;;55.30;19.73;;;;;;;-7.94;66.30;96337.72;4990615;28;20042;-81
2022/01/25 10:11:02;;;;;;;53.57;18.17;;;;;;;-8.75;66.07;96196.38;4995213;28;20038;-81
2022/01/25 10:13:34;;;;;;;53.43;18.80;;;;;;;-8.09;65.49;96305.56;4993414;28;20041;-80
2022/01/25 10:16:10;;;;;;;49.90;19.63;;;;;;;-7.88;66.49;96303.69;4993351;28;20069;-81
2022/01/25 10:18:54;;;;;;;47.00;19.30;;;;;;;-8.28;67.11;96264.31;4993175;28;20073;-81
2022/01/25 10:21:30;;;;;;;48.00;20.30;;;;;;;-7.87;66.79;96332.84;4992837;28;20034;-80
2022/01/25 10:24:24;;;;;;;45.20;19.17;;;;;;;-7.66;66.91;96323.25;4992997;28;20491;-81
2022/01/25 10:26:58;;;;;;;43.87;18.87;;;;;;;-7.14;66.06;96347.00;4992470;28;20038;-79
2022/01/25 10:29:29;;;;;;;42.80;18.00;;;;;;;-7.87;63.77;96103.69;4991911;28;20096;-80
2022/01/25 10:31:58;;;;;;;47.58;19.00;;;;;;;-6.67;62.89;96240.38;4991266;28;20050;-80
2022/01/25 10:34:30;;;;;;;44.97;18.70;;;;;;;-5.84;60.27;96319.44;4993747;28;20176;-80
2022/01/25 10:36:57;;;;;;;43.77;18.70;;;;;;;-5.60;60.75;96321.47;4992674;28;20551;-80
2022/01/25 10:39:32;;;;;;;44.40;18.20;;;;;;;-5.92;60.01;96239.31;4993746;28;20117;-81
2022/01/25 10:42:17;;;;;;;47.80;19.07;;;;;;;-5.40;58.30;96256.69;4995087;28;20513;-80
2022/01/25 10:44:53;;;;;;;50.73;19.90;;;;;;;-5.08;59.15;96299.16;4993879;28;20116;-80
2022/01/25 10:47:42;;;;;;;39.03;16.43;;;;;;;-4.93;57.84;96309.78;4993727;28;20709;-79
2022/01/25 10:50:23;;;;;;;38.83;16.93;;;;;;;-4.78;58.42;96289.34;4995463;28;20034;-80
2022/01/25 10:53:02;;;;;;;46.42;18.27;;;;;;;-5.17;57.49;96193.22;4995332;28;20054;-81
2022/01/25 10:55:39;;;;;;;45.55;17.70;;;;;;;-4.48;57.62;96269.97;4993793;28;20099;-80
2022/01/25 10:58:05;;;;;;;75.43;20.15;;;;;;;-4.44;59.02;96279.06;4992208;28;20038;-81
2022/01/25 11:00:33;;;;;;;40.25;18.42;;;;;;;-5.11;58.19;96213.31;4993888;28;20045;-80
2022/01/25 11:02:59;;;;;;;53.72;19.83;;;;;;;-4.64;58.06;96246.56;4993749;28;20484;-81
2022/01/25 11:05:25;;;;;;;45.15;18.45;;;;;;;-4.95;58.15;96199.66;4993984;28;20037;-80
2022/01/25 11:07:51;;;;;;;44.20;17.60;;;;;;;-5.15;57.42;96186.13;4993106;28;20046;-81
2022/01/25 11:10:21;;;;;;;53.88;18.67;;;;;;;-5.04;57.49;96193.63;4992938;28;20046;-80
2022/01/25 11:13:04;;;;;;;50.30;16.95;;;;;;;-5.12;57.73;96281.53;4994201;28;20044;-81
2022/01/25 11:15:29;;;;;;;50.38;19.73;;;;;;;-5.28;59.72;96186.53;4992766;28;20124;-81
2022/01/25 11:17:55;;;;;;;39.60;16.63;;;;;;;-5.31;57.95;96227.38;4991543;28;20081;-80
2022/01/25 11:20:21;;;;;;;52.25;20.10;;;;;;;-5.50;58.72;96177.50;4996829;28;20053;-79
2022/01/25 11:22:47;;;;;;;49.05;18.52;;;;;;;-5.43;57.66;96164.78;5006809;28;20065;-80
2022/01/25 11:25:17;;;;;;;48.85;16.45;;;;;;;-5.38;58.29;96206.47;5003490;28;20046;-79
2022/01/25 11:27:43;;;;;;;51.60;17.40;;;;;;;-5.69;58.22;96177.63;4997608;28;20088;-80
2022/01/25 11:30:25;;;;;;;50.15;19.38;;;;;;;-5.79;59.56;96147.66;4992911;28;20532;-80
2022/01/25 11:32:53;;;;;;;44.67;18.27;;;;;;;-5.14;59.61;96242.88;4991282;28;20532;-81
2022/01/25 11:35:23;;;;;;;58.08;18.20;;;;;;;-4.80;58.62;96234.34;4990757;28;20119;-80
2022/01/25 11:37:51;;;;;;;42.15;18.90;;;;;;;-5.78;59.31;96132.03;4993197;28;20081;-81
2022/01/25 11:40:46;;;;;;;42.83;14.52;;;;;;;-5.51;59.30;96173.28;4994514;28;20038;-81
2022/01/25 11:43:14;;;;;;;47.85;18.65;;;;;;;-5.01;60.20;96203.66;4993988;28;20054;-81
2022/01/25 11:45:48;;;;;;;52.88;19.25;;;;;;;-5.46;59.85;96098.66;4992212;28;20042;-81
2022/01/25 11:48:13;;;;;;;48.50;20.20;;;;;;;-4.69;58.76;96188.31;4994077;28;20358;-81
2022/01/25 11:50:42;;;;;;;49.10;18.98;;;;;;;-4.98;57.46;96156.00;4991817;28;20054;-82
2022/01/25 11:53:13;;;;;;;55.45;18.95;;;;;;;-4.85;58.70;96154.59;4994315;28;20125;-81
2022/01/25 11:55:47;;;;;;;48.47;19.55;;;;;;;-5.11;58.82;96144.28;4996161;28;20057;-80
2022/01/25 11:58:29;;;;;;;40.35;17.25;;;;;;;-5.60;58.68;96096.63;4995013;28;20110;-80
2022/01/25 12:00:58;;;;;;;46.22;18.73;;;;;;;-5.25;59.75;96157.75;4993963;28;20054;-81
2022/01/25 12:03:44;;;;;;;48.58;19.17;;;;;;;-5.28;59.32;96126.25;4993897;28;20066;-81
2022/01/25 12:06:23;;;;;;;49.43;19.43;;;;;;;-4.98;60.20;96187.84;4993447;28;20044;-81
2022/01/25 12:11:41;;;;;;;;;;;;;;;-4.85;59.46;96196.00;4994858;28;20532;-81
2022/01/25 12:14:26;;;;;;;50.88;16.75;;;;;;;-5.00;59.57;96176.84;4995013;28;19918;-81
2022/01/25 12:16:52;;;;;;;50.38;20.23;;;;;;;-5.20;59.66;96178.00;4993370;28;20057;-81
2022/01/25 12:19:21;;;;;;;65.30;18.35;;;;;;;-5.34;60.30;96081.09;4992744;28;20034;-82
2022/01/25 12:24:22;;;;;;;49.22;18.30;;;;;;;-4.89;58.44;96168.81;4998239;28;20504;-81
2022/01/25 12:27:18;;;;;;;45.47;19.33;;;;;;;-4.86;57.95;96178.84;4996905;28;20057;-81
2022/01/25 12:29:58;;;;;;;44.72;18.25;;;;;;;-4.69;57.94;96167.63;4996700;28;20050;-81
2022/01/25 12:32:29;;;;;;;50.03;19.17;;;;;;;-4.64;57.99;96166.31;4996584;28;20472;-81
2022/01/25 12:35:12;;;;;;;49.63;19.00;;;;;;;-4.33;57.56;96151.88;4996087;28;20219;-82
2022/01/25 12:37:44;;;;;;;41.60;19.30;;;;;;;-4.30;57.03;96151.56;4997615;28;20089;-82
2022/01/25 12:40:25;;;;;;;56.75;17.17;;;;;;;-4.32;58.21;96151.72;4995202;28;20057;-79
2022/01/25 12:43:03;;;;;;;44.10;18.00;;;;;;;-4.89;57.37;96054.97;4994918;28;20042;-79
2022/01/25 12:45:44;;;;;;;47.38;17.83;;;;;;;-4.36;55.73;96139.25;4995535;28;20108;-80
2022/01/25 12:48:13;;;;;;;50.67;17.33;;;;;;;-4.69;57.05;96097.75;4992747;28;20080;-80
2022/01/25 12:50:41;;;;;;;41.13;16.52;;;;;;;-4.74;56.57;96115.53;4993602;28;20141;-80
2022/01/25 12:53:14;;;;;;;41.13;15.95;;;;;;;-4.56;55.79;96148.25;4995048;28;20042;-80
2022/01/25 12:55:43;;;;;;;43.00;15.90;;;;;;;-4.80;57.39;96130.84;4993703;28;20034;-81
2022/01/25 12:58:09;;;;;;;34.25;15.25;;;;;;;-5.03;56.78;96078.06;4994332;28;20038;-80
2022/01/25 13:00:47;;;;;;;37.67;16.48;;;;;;;-4.91;56.91;96105.25;4994807;28;20184;-80
2022/01/25 13:03:20;;;;;;;40.30;16.38;;;;;;;-4.67;57.55;96126.88;4995445;28;20080;-79
2022/01/25 13:05:51;;;;;;;40.10;16.20;;;;;;;-4.40;56.27;96114.63;4995224;28;20045;-80
2022/01/25 13:08:36;;;;;;;;;;;;;;;-4.24;56.46;96109.50;4995370;28;20042;-80